createdAt,value
2023-05-10T00:00:19.677Z,1.60
2023-05-10T00:02:46.797Z,1.60
2023-05-10T00:05:13.496Z,1.20
2023-05-10T00:07:40.177Z,0.98
2023-05-10T00:10:07.266Z,0.93
2023-05-10T00:12:33.958Z,0.60
2023-05-10T00:15:00.751Z,0.50
2023-05-10T00:17:27.475Z,0.30
2023-05-10T00:19:54.176Z,0.30
2023-05-10T00:22:21.190Z,0.40
2023-05-10T00:24:47.888Z,0.30
2023-05-10T00:27:14.594Z,0.30
2023-05-10T00:29:41.336Z,0.13
2023-05-10T00:32:08.068Z,0.20
2023-05-10T00:34:34.797Z,0.13
2023-05-10T00:37:01.449Z,0.20
2023-05-10T00:39:29.685Z,0.30
2023-05-10T00:41:56.426Z,0.22
2023-05-10T00:44:23.197Z,0.10
2023-05-10T00:46:49.958Z,0.15
2023-05-10T00:49:17.191Z,0.10
2023-05-10T00:51:45.565Z,0.30
2023-05-10T00:54:13.161Z,0.30
2023-05-10T00:56:39.853Z,0.28
2023-05-10T00:59:06.514Z,0.32
2023-05-10T01:01:33.238Z,0.20
2023-05-10T01:03:59.961Z,0.38
2023-05-10T01:06:26.758Z,0.38
2023-05-10T01:08:53.393Z,0.25
2023-05-10T01:11:20.128Z,0.20
2023-05-10T01:13:48.820Z,0.20
2023-05-10T01:16:15.603Z,0.30
2023-05-10T01:18:42.349Z,0.22
2023-05-10T01:21:28.554Z,0.38
2023-05-10T01:24:19.930Z,0.35
2023-05-10T01:27:05.057Z,0.40
2023-05-10T01:29:43.817Z,0.52
2023-05-10T01:32:17.742Z,0.50
2023-05-10T01:34:52.363Z,0.50
2023-05-10T01:37:22.986Z,0.57
2023-05-10T01:40:02.299Z,0.80
2023-05-10T01:42:34.793Z,0.80
2023-05-10T01:45:07.898Z,0.80
2023-05-10T01:47:43.423Z,1.13
2023-05-10T01:50:12.251Z,0.90
2023-05-10T01:52:42.412Z,1.00
2023-05-10T01:55:10.595Z,0.98
2023-05-10T01:57:38.313Z,1.20
2023-05-10T02:00:05.879Z,0.98
2023-05-10T02:02:36.898Z,0.95
2023-05-10T02:05:05.400Z,0.80
2023-05-10T02:07:32.126Z,0.90
2023-05-10T02:09:58.785Z,1.02
2023-05-10T02:12:25.489Z,1.10
2023-05-10T02:14:52.260Z,0.88
2023-05-10T02:17:18.978Z,0.90
2023-05-10T02:19:46.415Z,0.77
2023-05-10T02:22:13.082Z,0.77
2023-05-10T02:24:39.929Z,1.17
2023-05-10T02:27:06.722Z,1.00
2023-05-10T02:29:33.791Z,0.82
2023-05-10T02:32:00.474Z,1.00
2023-05-10T02:34:27.660Z,0.82
2023-05-10T02:36:55.036Z,0.88
2023-05-10T02:39:22.325Z,1.17
2023-05-10T02:41:49.992Z,0.90
2023-05-10T02:44:18.815Z,0.75
2023-05-10T02:46:45.916Z,1.00
2023-05-10T02:49:12.718Z,0.90
2023-05-10T02:51:43.308Z,0.70
2023-05-10T02:54:16.710Z,0.85
2023-05-10T02:56:47.957Z,0.77
2023-05-10T02:59:14.682Z,0.80
2023-05-10T03:01:41.390Z,0.70
2023-05-10T03:04:08.336Z,1.15
2023-05-10T03:06:35.057Z,0.80
2023-05-10T03:09:02.395Z,0.98
2023-05-10T03:11:34.977Z,1.30
2023-05-10T03:14:23.532Z,0.98
2023-05-10T03:17:11.916Z,1.15
2023-05-10T03:19:47.892Z,1.17
2023-05-10T03:22:14.715Z,1.10
2023-05-10T03:24:41.366Z,1.95
2023-05-10T03:27:08.028Z,1.73
2023-05-10T03:29:34.716Z,1.80
2023-05-10T03:32:01.678Z,2.50
2023-05-10T03:34:28.323Z,2.55
2023-05-10T03:36:55.064Z,2.92
2023-05-10T03:39:22.468Z,3.97
2023-05-10T03:41:49.168Z,2.53
2023-05-10T03:44:15.882Z,2.33
2023-05-10T03:46:42.541Z,2.40
2023-05-10T03:49:09.255Z,1.90
2023-05-10T03:51:36.239Z,1.85
2023-05-10T03:54:06.080Z,1.80
2023-05-10T03:56:32.775Z,1.55
2023-05-10T03:58:59.603Z,1.52
2023-05-10T04:01:26.523Z,1.40
2023-05-10T04:03:53.381Z,1.30
2023-05-10T04:06:20.401Z,1.45
2023-05-10T04:08:47.285Z,1.50
2023-05-10T04:11:14.850Z,1.30
2023-05-10T04:13:41.595Z,1.25
2023-05-10T04:16:08.401Z,1.33
2023-05-10T04:18:35.118Z,1.38
2023-05-10T04:21:01.920Z,1.40
2023-05-10T04:23:28.888Z,1.27
2023-05-10T04:26:02.527Z,1.30
2023-05-10T04:28:29.221Z,1.20
2023-05-10T04:31:11.164Z,1.50
2023-05-10T04:33:38.210Z,1.50
2023-05-10T04:36:05.311Z,1.20
2023-05-10T04:38:32.014Z,1.50
2023-05-10T04:41:06.346Z,1.08
2023-05-10T04:43:33.074Z,0.98
2023-05-10T04:45:59.898Z,1.27
2023-05-10T04:48:26.566Z,1.10
2023-05-10T04:50:53.298Z,1.50
2023-05-10T04:53:19.944Z,1.20
2023-05-10T04:55:47.448Z,0.70
2023-05-10T04:58:14.086Z,1.02
2023-05-10T05:00:40.896Z,1.00
2023-05-10T05:03:07.664Z,0.93
2023-05-10T05:05:34.613Z,1.30
2023-05-10T05:08:01.847Z,0.85
2023-05-10T05:10:28.559Z,1.40
2023-05-10T05:12:55.307Z,1.00
2023-05-10T05:15:22.145Z,0.80
2023-05-10T05:17:48.850Z,0.93
2023-05-10T05:20:15.841Z,0.70
2023-05-10T05:22:42.689Z,0.90
2023-05-10T05:25:09.846Z,0.90
2023-05-10T05:27:36.893Z,0.80
2023-05-10T05:30:03.722Z,0.80
2023-05-10T05:32:30.477Z,0.65
2023-05-10T05:34:57.326Z,0.70
2023-05-10T05:37:25.582Z,1.10
2023-05-10T05:39:52.279Z,0.80
2023-05-10T05:42:19.936Z,0.93
2023-05-10T05:44:46.711Z,1.08
2023-05-10T05:47:13.500Z,0.90
2023-05-10T05:49:40.722Z,1.00
2023-05-10T05:52:07.382Z,1.00
2023-05-10T05:54:34.126Z,0.70
2023-05-10T05:57:01.679Z,0.68
2023-05-10T05:59:28.664Z,0.75
2023-05-10T06:01:55.779Z,0.80
2023-05-10T06:04:22.572Z,0.70
2023-05-10T06:06:49.549Z,0.85
2023-05-10T06:09:16.323Z,1.33
2023-05-10T06:11:43.184Z,1.00
2023-05-10T06:14:10.377Z,1.00
2023-05-10T06:16:37.071Z,0.90
2023-05-10T06:19:04.302Z,0.98
2023-05-10T06:21:31.374Z,1.10
2023-05-10T06:23:58.136Z,1.13
2023-05-10T06:26:24.907Z,1.08
2023-05-10T06:28:51.620Z,1.02
2023-05-10T06:31:18.865Z,1.40
2023-05-10T06:33:45.803Z,1.38
2023-05-10T06:36:12.717Z,1.20
2023-05-10T06:38:39.392Z,1.25
2023-05-10T06:41:06.637Z,1.33
2023-05-10T06:43:33.408Z,1.35
2023-05-10T06:46:00.142Z,0.90
2023-05-10T06:48:26.906Z,1.08
2023-05-10T06:50:53.654Z,1.23
2023-05-10T06:53:20.356Z,0.90
2023-05-10T06:55:47.566Z,1.00
2023-05-10T06:58:14.231Z,0.68
2023-05-10T07:00:41.730Z,0.70
2023-05-10T07:03:08.601Z,0.60
2023-05-10T07:05:35.538Z,0.52
2023-05-10T07:08:02.675Z,0.82
2023-05-10T07:10:29.474Z,0.60
2023-05-10T07:12:56.257Z,0.75
2023-05-10T07:15:23.159Z,0.82
2023-05-10T07:17:49.884Z,0.60
2023-05-10T07:20:16.758Z,0.70
2023-05-10T07:22:43.468Z,1.10
2023-05-10T07:25:10.612Z,0.90
2023-05-10T07:27:37.321Z,0.90
2023-05-10T07:30:04.392Z,0.70
2023-05-10T07:32:31.762Z,0.77
2023-05-10T07:34:58.490Z,0.90
2023-05-10T07:37:25.210Z,0.52
2023-05-10T07:39:51.858Z,0.75
2023-05-10T07:42:18.730Z,0.93
2023-05-10T07:44:45.432Z,0.60
2023-05-10T07:47:12.172Z,0.68
2023-05-10T07:49:39.381Z,0.63
2023-05-10T07:52:06.081Z,0.70
2023-05-10T07:54:32.907Z,0.98
2023-05-10T07:57:00.843Z,0.50
2023-05-10T07:59:27.500Z,0.50
2023-05-10T08:01:54.240Z,0.60
2023-05-10T08:04:21.083Z,0.60
2023-05-10T08:06:47.824Z,0.70
2023-05-10T08:09:14.555Z,0.70
2023-05-10T08:11:41.259Z,1.30
2023-05-10T08:14:08.003Z,0.70
2023-05-10T08:16:35.484Z,0.90
2023-05-10T08:19:02.261Z,0.50
2023-05-10T08:21:29.068Z,0.60
2023-05-10T08:23:55.929Z,0.55
2023-05-10T08:26:22.814Z,0.70
2023-05-10T08:28:49.573Z,0.43
2023-05-10T08:31:16.786Z,0.40
2023-05-10T08:33:44.510Z,0.80
2023-05-10T08:36:11.750Z,0.45
2023-05-10T08:38:39.013Z,0.65
2023-05-10T08:41:06.425Z,0.40
2023-05-10T08:43:33.188Z,0.30
2023-05-10T08:46:04.231Z,0.40
2023-05-10T08:48:32.146Z,0.40
2023-05-10T08:50:59.687Z,0.55
2023-05-10T08:53:27.747Z,0.63
2023-05-10T08:55:54.473Z,0.68
2023-05-10T08:58:21.424Z,0.50
2023-05-10T09:00:53.871Z,0.22
2023-05-10T09:03:20.752Z,0.32
2023-05-10T09:05:47.703Z,0.60
2023-05-10T09:08:15.573Z,0.50
2023-05-10T09:10:43.308Z,0.40
2023-05-10T09:13:11.094Z,0.40
2023-05-10T09:15:37.800Z,0.80
2023-05-10T09:18:05.126Z,0.20
2023-05-10T09:20:32.263Z,0.35
2023-05-10T09:22:58.987Z,0.40
2023-05-10T09:25:25.765Z,0.40
2023-05-10T09:27:53.426Z,0.20
2023-05-10T09:30:26.672Z,0.40
2023-05-10T09:32:53.750Z,0.13
2023-05-10T09:35:22.201Z,0.10
2023-05-10T09:37:51.211Z,0.30
2023-05-10T09:40:19.370Z,0.30
2023-05-10T09:43:12.387Z,0.20
2023-05-10T09:45:39.357Z,0.20
2023-05-10T09:48:06.541Z,0.38
2023-05-10T09:50:33.375Z,0.30
2023-05-10T09:53:01.828Z,0.30
2023-05-10T09:55:41.880Z,0.20
2023-05-10T09:58:11.764Z,0.60
2023-05-10T10:00:45.899Z,1.35
2023-05-10T10:03:17.203Z,0.40
2023-05-10T10:05:44.908Z,0.30
2023-05-10T10:08:12.200Z,0.40
2023-05-10T10:10:41.352Z,0.40
2023-05-10T10:13:08.304Z,0.32
2023-05-10T10:15:35.797Z,0.30
2023-05-10T10:18:04.621Z,0.40
2023-05-10T10:20:31.420Z,0.50
2023-05-10T10:22:58.216Z,0.70
2023-05-10T10:25:24.949Z,0.30
2023-05-10T10:27:54.778Z,0.50
2023-05-10T10:30:21.555Z,0.32
2023-05-10T10:32:54.209Z,0.63
2023-05-10T10:35:21.034Z,0.28
2023-05-10T10:37:48.715Z,0.40
2023-05-10T10:40:29.614Z,0.73
2023-05-10T10:42:57.449Z,0.40
2023-05-10T10:45:25.304Z,0.30
2023-05-10T10:48:21.242Z,0.30
2023-05-10T10:50:47.904Z,0.28
2023-05-10T10:53:14.600Z,0.20
2023-05-10T10:55:48.976Z,0.30
2023-05-10T10:58:42.171Z,0.30
2023-05-10T11:01:13.776Z,0.22
2023-05-10T11:03:40.824Z,0.30
2023-05-10T11:06:08.685Z,0.43
2023-05-10T11:08:43.492Z,0.20
2023-05-10T11:11:10.223Z,0.30
2023-05-10T11:13:40.013Z,0.15
2023-05-10T11:16:20.932Z,0.25
2023-05-10T11:19:05.237Z,0.40
2023-05-10T11:21:32.753Z,1.00
2023-05-10T11:24:01.145Z,0.40
2023-05-10T11:26:33.349Z,0.50
2023-05-10T11:29:01.820Z,0.30
2023-05-10T11:31:29.215Z,0.50
2023-05-10T11:33:58.038Z,0.70
2023-05-10T11:36:29.622Z,0.40
2023-05-10T11:38:57.073Z,0.30
2023-05-10T11:41:24.392Z,0.60
2023-05-10T11:43:52.198Z,0.28
2023-05-10T11:46:23.970Z,0.40
2023-05-10T11:48:52.726Z,0.30
2023-05-10T11:51:23.653Z,0.30
2023-05-10T11:53:56.598Z,0.82
2023-05-10T11:56:24.508Z,0.93
2023-05-10T11:58:58.703Z,0.63
2023-05-10T12:01:27.172Z,1.70
2023-05-10T12:03:55.409Z,0.50
2023-05-10T12:06:22.572Z,0.60
2023-05-10T12:08:53.679Z,0.70
2023-05-10T12:11:22.005Z,0.90
2023-05-10T12:13:48.934Z,0.65
2023-05-10T12:16:23.395Z,0.47
2023-05-10T12:18:52.164Z,0.70
2023-05-10T12:21:20.208Z,0.68
2023-05-10T12:23:48.383Z,0.70
2023-05-10T12:26:15.100Z,1.35
2023-05-10T12:28:41.724Z,0.70
2023-05-10T12:31:08.914Z,0.90
2023-05-10T12:33:46.436Z,0.60
2023-05-10T12:36:17.507Z,0.52
2023-05-10T12:38:48.734Z,0.73
2023-05-10T12:41:19.165Z,0.80
2023-05-10T12:43:49.315Z,0.60
2023-05-10T12:46:18.346Z,1.30
2023-05-10T12:48:47.510Z,0.60
2023-05-10T12:51:16.854Z,0.70
2023-05-10T12:53:46.107Z,0.40
2023-05-10T12:56:14.044Z,0.60
2023-05-10T12:58:41.159Z,0.35
2023-05-10T13:01:08.506Z,0.47
2023-05-10T13:03:35.550Z,0.45
2023-05-10T13:06:02.321Z,0.60
2023-05-10T13:08:33.695Z,0.73
2023-05-10T13:11:01.521Z,0.50
2023-05-10T13:13:28.201Z,0.60
2023-05-10T13:15:55.551Z,0.50
2023-05-10T13:18:22.447Z,0.60
2023-05-10T13:20:50.669Z,0.60
2023-05-10T13:23:17.410Z,0.70
2023-05-10T13:25:44.142Z,0.80
2023-05-10T13:28:10.941Z,1.05
2023-05-10T13:30:37.690Z,0.40
2023-05-10T13:33:04.797Z,0.77
2023-05-10T13:35:31.565Z,0.50
2023-05-10T13:37:58.859Z,0.40
2023-05-10T13:40:25.709Z,0.60
2023-05-10T13:42:52.419Z,0.57
2023-05-10T13:45:19.405Z,0.77
2023-05-10T13:47:46.283Z,0.60
2023-05-10T13:50:13.115Z,0.60
2023-05-10T13:52:39.804Z,0.85
2023-05-10T13:55:07.017Z,0.90
2023-05-10T13:57:35.517Z,0.80
2023-05-10T14:00:02.994Z,0.50
2023-05-10T14:02:29.783Z,0.90
2023-05-10T14:04:56.634Z,0.43
2023-05-10T14:07:23.368Z,0.70
2023-05-10T14:09:50.561Z,0.43
2023-05-10T14:12:17.372Z,0.85
2023-05-10T14:14:44.106Z,0.75
2023-05-10T14:17:12.524Z,0.40
2023-05-10T14:19:40.104Z,0.90
2023-05-10T14:22:07.138Z,0.50
2023-05-10T14:24:33.869Z,0.40
2023-05-10T14:27:01.258Z,0.73
2023-05-10T14:29:28.263Z,0.70
2023-05-10T14:31:55.012Z,0.55
2023-05-10T14:34:22.002Z,0.75
2023-05-10T14:36:48.708Z,0.70
2023-05-10T14:39:15.379Z,0.57
2023-05-10T14:41:44.038Z,0.55
2023-05-10T14:44:11.308Z,0.80
2023-05-10T14:46:38.384Z,0.75
2023-05-10T14:49:05.132Z,0.77
2023-05-10T14:51:32.881Z,0.77
2023-05-10T14:53:59.790Z,0.80
2023-05-10T14:56:27.217Z,0.60
2023-05-10T14:58:53.957Z,0.60
2023-05-10T15:01:21.338Z,0.50
2023-05-10T15:03:48.728Z,0.98
2023-05-10T15:06:17.202Z,1.42
2023-05-10T15:08:44.504Z,0.77
2023-05-10T15:11:11.165Z,0.70
2023-05-10T15:13:37.941Z,1.30
2023-05-10T15:16:04.843Z,1.50
2023-05-10T15:18:31.678Z,6.25
2023-05-10T15:20:59.489Z,3.28
2023-05-10T15:23:26.527Z,3.10
2023-05-10T15:25:56.834Z,0.70
2023-05-10T15:28:23.899Z,0.50
2023-05-10T15:30:51.355Z,0.40
2023-05-10T15:33:18.136Z,0.80
2023-05-10T15:35:44.856Z,0.70
2023-05-10T15:38:11.704Z,0.47
2023-05-10T15:40:38.520Z,0.70
2023-05-10T15:43:06.429Z,0.90
2023-05-10T15:45:34.596Z,0.73
2023-05-10T15:48:03.984Z,0.50
2023-05-10T15:50:30.766Z,0.45
2023-05-10T15:52:57.496Z,0.50
2023-05-10T15:55:24.325Z,0.50
2023-05-10T15:57:51.506Z,0.70
2023-05-10T16:00:19.130Z,0.40
2023-05-10T16:02:45.890Z,0.40
2023-05-10T16:05:14.035Z,0.60
2023-05-10T16:07:42.131Z,0.45
2023-05-10T16:10:10.760Z,0.65
2023-05-10T16:12:37.901Z,0.35
2023-05-10T16:15:05.051Z,0.43
2023-05-10T16:17:32.256Z,0.50
2023-05-10T16:19:59.037Z,0.50
2023-05-10T16:22:27.411Z,0.22
2023-05-10T16:24:54.069Z,0.52
2023-05-10T16:27:20.824Z,0.52
2023-05-10T16:29:48.120Z,0.45
2023-05-10T16:32:15.058Z,0.30
2023-05-10T16:34:41.841Z,0.40
2023-05-10T16:37:08.676Z,0.30
2023-05-10T16:39:35.765Z,0.20
2023-05-10T16:42:02.596Z,1.30
2023-05-10T16:44:29.270Z,0.70
2023-05-10T16:46:56.183Z,1.00
2023-05-10T16:49:25.789Z,0.70
2023-05-10T16:51:53.005Z,0.57
2023-05-10T16:54:20.890Z,0.93
2023-05-10T16:56:47.804Z,0.70
2023-05-10T16:59:14.462Z,0.40
2023-05-10T17:01:41.307Z,0.50
2023-05-10T17:04:08.623Z,0.35
2023-05-10T17:06:37.206Z,0.70
2023-05-10T17:09:05.638Z,0.70
2023-05-10T17:11:32.792Z,0.75
2023-05-10T17:14:01.190Z,0.55
2023-05-10T17:16:27.892Z,0.55
2023-05-10T17:18:54.680Z,0.50
2023-05-10T17:21:21.464Z,0.80
2023-05-10T17:23:48.173Z,0.55
2023-05-10T17:26:14.851Z,0.50
2023-05-10T17:28:41.563Z,0.60
2023-05-10T17:31:08.780Z,0.70
2023-05-10T17:33:35.508Z,0.50
2023-05-10T17:36:02.238Z,0.70
2023-05-10T17:38:28.946Z,0.70
2023-05-10T17:40:55.630Z,0.40
2023-05-10T17:43:23.524Z,0.70
2023-05-10T17:45:50.328Z,0.50
2023-05-10T17:48:17.435Z,0.40
2023-05-10T17:50:44.594Z,1.00
2023-05-10T17:53:11.390Z,0.90
2023-05-10T17:55:41.937Z,1.00
2023-05-10T17:58:12.790Z,0.52
2023-05-10T18:00:39.739Z,0.75
2023-05-10T18:03:06.547Z,0.93
2023-05-10T18:05:36.492Z,1.10
2023-05-10T18:08:04.240Z,1.15
2023-05-10T18:10:31.434Z,1.02
2023-05-10T18:13:02.534Z,1.10
2023-05-10T18:15:29.486Z,0.88
2023-05-10T18:17:56.933Z,1.13
2023-05-10T18:20:23.808Z,0.90
2023-05-10T18:22:50.809Z,0.80
2023-05-10T18:25:17.993Z,0.90
2023-05-10T18:27:45.016Z,1.00
2023-05-10T18:30:12.650Z,0.70
2023-05-10T18:32:39.890Z,0.80
2023-05-10T18:35:08.248Z,0.80
2023-05-10T18:37:35.473Z,0.70
2023-05-10T18:40:02.591Z,1.00
2023-05-10T18:42:29.323Z,0.88
2023-05-10T18:44:56.039Z,0.93
2023-05-10T18:47:22.870Z,0.60
2023-05-10T18:49:49.807Z,0.70
2023-05-10T18:52:16.520Z,0.88
2023-05-10T18:54:43.176Z,0.75
2023-05-10T18:57:09.905Z,0.80
2023-05-10T18:59:36.605Z,0.82
2023-05-10T19:02:03.350Z,1.10
2023-05-10T19:04:30.146Z,0.85
2023-05-10T19:06:57.114Z,1.02
2023-05-10T19:09:24.269Z,0.63
2023-05-10T19:11:51.618Z,0.80
2023-05-10T19:14:18.336Z,0.70
2023-05-10T19:16:45.106Z,0.65
2023-05-10T19:19:12.116Z,0.60
2023-05-10T19:21:39.834Z,0.50
2023-05-10T19:24:06.851Z,0.90
2023-05-10T19:26:34.484Z,0.50
2023-05-10T19:29:03.106Z,0.52
2023-05-10T19:31:30.126Z,0.55
2023-05-10T19:33:59.976Z,0.50
2023-05-10T19:36:27.423Z,0.77
2023-05-10T19:38:54.988Z,0.88
2023-05-10T19:41:22.048Z,0.50
2023-05-10T19:43:48.981Z,0.68
2023-05-10T19:46:16.653Z,0.65
2023-05-10T19:48:44.535Z,0.70
2023-05-10T19:51:14.059Z,0.70
2023-05-10T19:53:44.266Z,0.70
2023-05-10T19:56:11.281Z,0.90
2023-05-10T19:58:37.944Z,0.80
2023-05-10T20:01:07.696Z,1.10
2023-05-10T20:03:35.660Z,1.25
2023-05-10T20:06:02.948Z,1.13
2023-05-10T20:08:29.831Z,1.05
2023-05-10T20:10:59.219Z,1.63
2023-05-10T20:13:25.966Z,1.00
2023-05-10T20:15:58.516Z,1.00
2023-05-10T20:18:26.036Z,1.13
2023-05-10T20:20:57.615Z,1.02
2023-05-10T20:23:24.315Z,1.30
2023-05-10T20:25:51.155Z,1.33
2023-05-10T20:28:25.355Z,1.55
2023-05-10T20:30:53.469Z,1.10
2023-05-10T20:33:20.977Z,1.60
2023-05-10T20:35:47.698Z,1.10
2023-05-10T20:38:14.399Z,1.40
2023-05-10T20:40:41.090Z,1.40
2023-05-10T20:43:07.787Z,1.20
2023-05-10T20:45:35.881Z,1.90
2023-05-10T20:48:04.373Z,1.60
2023-05-10T20:50:31.123Z,1.40
2023-05-10T20:52:58.009Z,1.58
2023-05-10T20:55:24.693Z,1.42
2023-05-10T20:57:51.640Z,1.20
2023-05-10T21:00:18.713Z,1.02
2023-05-10T21:02:46.189Z,1.02
2023-05-10T21:05:12.984Z,1.48
2023-05-10T21:07:39.963Z,1.30
2023-05-10T21:10:08.293Z,1.40
2023-05-10T21:12:38.198Z,0.90
2023-05-10T21:15:05.192Z,0.93
2023-05-10T21:17:31.920Z,0.90
2023-05-10T21:19:58.726Z,0.80
2023-05-10T21:22:25.475Z,0.63
2023-05-10T21:24:52.297Z,0.70
2023-05-10T21:27:19.085Z,0.50
2023-05-10T21:29:46.001Z,0.47
2023-05-10T21:32:12.721Z,0.57
2023-05-10T21:34:39.437Z,0.60
2023-05-10T21:37:06.176Z,0.40
2023-05-10T21:39:32.889Z,0.50
2023-05-10T21:42:00.368Z,0.93
2023-05-10T21:44:27.122Z,0.40
2023-05-10T21:46:53.758Z,0.40
2023-05-10T21:49:20.489Z,0.40
2023-05-10T21:51:47.434Z,0.50
2023-05-10T21:54:14.240Z,0.45
2023-05-10T21:56:41.025Z,0.40
2023-05-10T21:59:07.762Z,0.52
2023-05-10T22:01:34.566Z,0.52
2023-05-10T22:04:01.291Z,0.40
2023-05-10T22:06:27.993Z,0.70
2023-05-10T22:08:55.085Z,0.40
2023-05-10T22:11:21.991Z,0.40
2023-05-10T22:13:48.698Z,0.50
2023-05-10T22:16:15.566Z,0.50
2023-05-10T22:18:43.314Z,0.45
2023-05-10T22:21:10.535Z,0.63
2023-05-10T22:23:37.177Z,0.40
2023-05-10T22:26:04.360Z,0.40
2023-05-10T22:28:31.073Z,0.52
2023-05-10T22:30:57.814Z,0.60
2023-05-10T22:33:24.582Z,0.63
2023-05-10T22:35:51.430Z,0.45
2023-05-10T22:38:18.136Z,0.70
2023-05-10T22:40:44.828Z,0.60
2023-05-10T22:43:11.942Z,0.40
2023-05-10T22:45:38.750Z,0.52
2023-05-10T22:48:05.610Z,0.50
2023-05-10T22:50:32.350Z,0.50
2023-05-10T22:52:59.030Z,0.77
2023-05-10T22:55:25.815Z,0.55
2023-05-10T22:57:52.539Z,0.90
2023-05-10T23:00:19.830Z,0.50
2023-05-10T23:02:46.927Z,0.70
2023-05-10T23:05:13.808Z,0.57
2023-05-10T23:07:40.719Z,0.70
2023-05-10T23:10:07.796Z,0.50
2023-05-10T23:12:34.800Z,0.70
2023-05-10T23:15:01.667Z,0.90
2023-05-10T23:17:28.434Z,0.85
2023-05-10T23:19:55.173Z,0.68
2023-05-10T23:22:21.978Z,0.70
2023-05-10T23:24:48.658Z,0.95
2023-05-10T23:27:15.373Z,0.77
2023-05-10T23:29:42.235Z,0.60
2023-05-10T23:32:09.075Z,0.85
2023-05-10T23:34:35.899Z,0.40
2023-05-10T23:37:02.701Z,0.60
2023-05-10T23:39:29.601Z,0.70
2023-05-10T23:41:56.376Z,1.00
2023-05-10T23:44:23.617Z,0.60
2023-05-10T23:46:50.378Z,0.60
2023-05-10T23:49:17.487Z,0.75
2023-05-10T23:51:44.202Z,0.70
2023-05-10T23:54:10.972Z,0.70
2023-05-10T23:56:37.677Z,0.45
2023-05-10T23:59:06.070Z,0.60
